createdAt,value
2018-10-18T00:00:14.188Z,18.20
2018-10-18T00:04:16.475Z,19.00
2018-10-18T00:08:18.922Z,19.37
2018-10-18T00:12:21.260Z,19.87
2018-10-18T00:16:24.383Z,21.17
2018-10-18T00:20:26.768Z,21.80
2018-10-18T00:24:29.163Z,18.60
2018-10-18T00:28:31.519Z,22.00
2018-10-18T00:32:33.831Z,19.13
2018-10-18T00:36:36.145Z,20.70
2018-10-18T00:40:38.507Z,21.20
2018-10-18T00:44:40.841Z,19.87
2018-10-18T00:48:43.183Z,19.33
2018-10-18T00:52:45.525Z,19.37
2018-10-18T00:56:47.824Z,22.17
2018-10-18T01:00:50.378Z,21.43
2018-10-18T01:04:52.689Z,21.67
2018-10-18T01:08:54.998Z,20.97
2018-10-18T01:12:57.333Z,17.97
2018-10-18T01:17:02.788Z,18.93
2018-10-18T01:21:05.206Z,18.70
2018-10-18T01:25:07.614Z,19.50
2018-10-18T01:29:10.022Z,20.60
2018-10-18T01:33:12.389Z,21.70
2018-10-18T01:37:14.716Z,21.80
2018-10-18T01:41:17.118Z,18.53
2018-10-18T01:45:19.522Z,19.20
2018-10-18T01:49:21.829Z,18.50
2018-10-18T01:53:24.572Z,18.33
2018-10-18T01:57:26.898Z,18.67
2018-10-18T02:01:29.842Z,19.00
2018-10-18T02:05:32.193Z,21.03
2018-10-18T02:09:34.517Z,19.97
2018-10-18T02:13:37.054Z,19.97
2018-10-18T02:17:39.983Z,20.97
2018-10-18T02:21:42.354Z,23.17
2018-10-18T02:25:44.712Z,21.10
2018-10-18T02:29:47.082Z,21.33
2018-10-18T02:33:49.482Z,18.70
2018-10-18T02:37:51.869Z,19.13
2018-10-18T02:41:54.186Z,19.47
2018-10-18T02:45:56.632Z,19.30
2018-10-18T02:49:59.040Z,22.17
2018-10-18T02:54:01.388Z,21.70
2018-10-18T02:58:03.728Z,21.87
2018-10-18T03:02:06.882Z,24.17
2018-10-18T03:06:09.178Z,22.80
2018-10-18T03:10:11.423Z,21.90
2018-10-18T03:14:13.849Z,20.70
2018-10-18T03:18:16.266Z,19.93
2018-10-18T03:22:18.587Z,19.70
2018-10-18T03:26:20.886Z,23.07
2018-10-18T03:30:23.312Z,23.80
2018-10-18T03:34:25.517Z,24.37
2018-10-18T03:38:28.505Z,21.97
2018-10-18T03:42:31.001Z,20.23
2018-10-18T03:46:33.516Z,18.00
2018-10-18T03:50:35.886Z,18.30
2018-10-18T03:54:38.218Z,18.13
2018-10-18T03:58:40.513Z,20.57
2018-10-18T04:02:42.857Z,21.00
2018-10-18T04:06:45.153Z,21.30
2018-10-18T04:10:47.461Z,20.13
2018-10-18T04:14:49.759Z,19.30
2018-10-18T04:18:52.067Z,18.63
2018-10-18T04:22:54.346Z,19.03
2018-10-18T04:26:57.013Z,18.13
2018-10-18T04:31:00.187Z,18.20
2018-10-18T04:35:02.601Z,20.63
2018-10-18T04:39:07.162Z,20.73
2018-10-18T04:43:09.508Z,18.37
2018-10-18T04:47:11.946Z,21.13
2018-10-18T04:51:14.244Z,26.93
2018-10-18T04:55:16.607Z,20.50
2018-10-18T04:59:18.876Z,22.30
2018-10-18T05:03:21.151Z,22.57
2018-10-18T05:07:23.518Z,22.90
2018-10-18T05:11:25.912Z,22.10
2018-10-18T05:15:28.192Z,20.80
2018-10-18T05:19:30.496Z,24.80
2018-10-18T05:23:32.806Z,23.63
2018-10-18T05:27:35.158Z,24.27
2018-10-18T05:31:37.493Z,24.53
2018-10-18T05:35:39.885Z,25.43
2018-10-18T05:39:42.186Z,27.23
2018-10-18T05:43:44.566Z,28.10
2018-10-18T05:47:46.873Z,37.80
2018-10-18T05:51:49.216Z,39.10
2018-10-18T05:55:51.472Z,33.03
2018-10-18T05:59:53.767Z,34.03
2018-10-18T06:03:56.056Z,34.00
2018-10-18T06:07:58.396Z,31.67
2018-10-18T06:12:00.728Z,33.10
2018-10-18T06:16:03.026Z,27.30
2018-10-18T06:20:05.708Z,27.77
2018-10-18T06:24:08.012Z,29.30
2018-10-18T06:28:10.352Z,28.73
2018-10-18T06:32:12.663Z,29.13
2018-10-18T06:36:15.067Z,36.53
2018-10-18T06:40:17.936Z,42.47
2018-10-18T06:44:20.211Z,34.87
2018-10-18T06:48:22.599Z,30.27
2018-10-18T06:52:24.930Z,32.53
2018-10-18T06:56:27.322Z,34.37
2018-10-18T07:00:29.681Z,31.40
2018-10-18T07:04:31.955Z,33.00
2018-10-18T07:08:34.286Z,32.60
2018-10-18T07:12:37.379Z,33.93
2018-10-18T07:16:39.681Z,36.23
2018-10-18T07:20:42.100Z,44.47
2018-10-18T07:24:44.537Z,59.70
2018-10-18T07:28:47.177Z,58.77
2018-10-18T07:32:49.410Z,64.30
2018-10-18T07:36:51.749Z,80.87
2018-10-18T07:40:54.096Z,84.53
2018-10-18T07:44:56.560Z,87.63
2018-10-18T07:48:58.859Z,103.47
2018-10-18T07:53:01.241Z,100.27
2018-10-18T07:57:03.675Z,105.50
2018-10-18T08:01:05.984Z,101.77
2018-10-18T08:05:08.720Z,113.77
2018-10-18T08:09:12.741Z,109.27
2018-10-18T08:13:15.082Z,111.43
2018-10-18T08:17:17.538Z,108.80
2018-10-18T08:21:19.862Z,103.90
2018-10-18T08:25:22.176Z,86.57
2018-10-18T08:29:24.520Z,87.73
2018-10-18T08:33:26.896Z,93.10
2018-10-18T08:37:29.252Z,87.87
2018-10-18T08:41:31.528Z,78.57
2018-10-18T08:45:33.844Z,99.07
2018-10-18T08:49:36.305Z,78.03
2018-10-18T08:53:38.549Z,78.57
2018-10-18T08:57:41.356Z,83.10
2018-10-18T09:01:43.660Z,96.43
2018-10-18T09:05:46.061Z,78.00
2018-10-18T09:09:48.370Z,73.80
2018-10-18T09:13:50.683Z,70.83
2018-10-18T09:17:53.016Z,65.30
2018-10-18T09:21:55.540Z,71.30
2018-10-18T09:25:57.838Z,71.30
2018-10-18T09:30:00.226Z,68.60
2018-10-18T09:34:02.575Z,70.17
2018-10-18T09:38:05.625Z,76.97
2018-10-18T09:42:07.950Z,66.83
2018-10-18T09:46:10.319Z,69.53
2018-10-18T09:50:12.691Z,61.50
2018-10-18T09:54:15.034Z,69.07
2018-10-18T09:58:17.338Z,65.10
2018-10-18T10:02:25.310Z,68.07
2018-10-18T10:06:27.663Z,60.33
2018-10-18T10:10:29.978Z,73.20
2018-10-18T10:14:32.342Z,62.67
2018-10-18T10:18:34.768Z,58.60
2018-10-18T10:22:37.215Z,57.27
2018-10-18T10:26:39.585Z,60.47
2018-10-18T10:30:42.034Z,49.53
2018-10-18T10:34:44.393Z,51.53
2018-10-18T10:38:46.964Z,51.17
2018-10-18T10:42:49.383Z,49.73
2018-10-18T10:46:54.175Z,49.57
2018-10-18T10:50:56.691Z,53.73
2018-10-18T10:55:00.558Z,50.10
2018-10-18T10:59:10.588Z,51.00
2018-10-18T11:03:13.189Z,47.03
2018-10-18T11:07:15.864Z,42.70
2018-10-18T11:11:18.598Z,52.57
2018-10-18T11:15:21.029Z,53.47
2018-10-18T11:19:23.319Z,51.47
2018-10-18T11:23:25.670Z,49.13
2018-10-18T11:27:28.227Z,48.53
2018-10-18T11:31:30.849Z,53.70
2018-10-18T11:35:33.219Z,40.60
2018-10-18T11:39:35.580Z,47.93
2018-10-18T11:43:37.963Z,48.07
2018-10-18T11:47:40.361Z,51.57
2018-10-18T11:51:42.894Z,44.97
2018-10-18T11:55:45.187Z,55.83
2018-10-18T11:59:47.573Z,46.73
2018-10-18T12:03:50.123Z,47.70
2018-10-18T12:07:53.196Z,51.30
2018-10-18T12:11:55.541Z,45.17
2018-10-18T12:15:58.763Z,48.77
2018-10-18T12:20:01.282Z,50.93
2018-10-18T12:24:03.707Z,48.70
2018-10-18T12:28:06.184Z,46.30
2018-10-18T12:32:08.654Z,63.37
2018-10-18T12:37:40.483Z,59.03
2018-10-18T12:41:42.981Z,61.63
2018-10-18T12:45:45.262Z,52.23
2018-10-18T12:49:47.631Z,57.03
2018-10-18T12:53:49.997Z,60.17
2018-10-18T12:57:52.395Z,52.33
2018-10-18T13:01:54.883Z,53.10
2018-10-18T13:05:57.262Z,55.73
2018-10-18T13:09:59.599Z,55.03
2018-10-18T13:14:02.091Z,52.97
2018-10-18T13:18:04.867Z,53.70
2018-10-18T13:22:07.168Z,54.37
2018-10-18T13:26:09.498Z,51.27
2018-10-18T13:30:12.872Z,50.27
2018-10-18T13:34:15.153Z,52.57
2018-10-18T13:38:17.562Z,47.63
2018-10-18T13:42:19.979Z,47.43
2018-10-18T13:46:22.442Z,44.80
2018-10-18T13:50:24.812Z,66.03
2018-10-18T13:54:28.372Z,49.23
2018-10-18T13:58:30.715Z,49.03
2018-10-18T14:02:33.096Z,47.77
2018-10-18T14:06:35.393Z,69.23
2018-10-18T14:10:37.764Z,44.57
2018-10-18T14:14:40.093Z,52.63
2018-10-18T14:18:42.653Z,49.27
2018-10-18T14:22:45.079Z,48.10
2018-10-18T14:26:48.306Z,55.73
2018-10-18T14:30:50.753Z,50.47
2018-10-18T14:34:53.202Z,43.73
2018-10-18T14:38:55.645Z,50.30
2018-10-18T14:42:58.478Z,51.17
2018-10-18T14:47:00.903Z,50.27
2018-10-18T14:51:03.157Z,47.17
2018-10-18T14:55:05.945Z,45.40
2018-10-18T14:59:08.773Z,42.60
2018-10-18T15:03:11.127Z,49.30
2018-10-18T15:07:13.489Z,43.23
2018-10-18T15:11:15.901Z,40.20
2018-10-18T15:15:18.192Z,41.90
2018-10-18T15:19:20.569Z,47.83
2018-10-18T15:23:23.086Z,43.83
2018-10-18T15:27:25.969Z,40.27
2018-10-18T15:31:28.211Z,37.23
2018-10-18T15:35:30.561Z,36.80
2018-10-18T15:39:33.066Z,34.13
2018-10-18T15:43:35.331Z,35.37
2018-10-18T15:47:37.921Z,35.07
2018-10-18T15:51:40.298Z,34.50
2018-10-18T15:55:42.688Z,34.40
2018-10-18T15:59:45.068Z,35.47
2018-10-18T16:03:47.450Z,37.03
2018-10-18T16:07:49.827Z,35.57
2018-10-18T16:11:52.208Z,32.40
2018-10-18T16:15:54.561Z,32.87
2018-10-18T16:19:56.919Z,32.60
2018-10-18T16:23:59.308Z,31.97
2018-10-18T16:28:01.821Z,34.53
2018-10-18T16:32:04.400Z,35.33
2018-10-18T16:36:06.753Z,33.67
2018-10-18T16:40:09.148Z,31.53
2018-10-18T16:44:12.625Z,32.47
2018-10-18T16:48:15.029Z,35.10
2018-10-18T16:52:17.465Z,35.23
2018-10-18T16:56:21.618Z,35.23
2018-10-18T17:00:24.081Z,33.60
2018-10-18T17:04:26.683Z,30.60
2018-10-18T17:08:28.931Z,34.33
2018-10-18T17:12:31.252Z,33.07
2018-10-18T17:16:33.950Z,33.67
2018-10-18T17:20:36.458Z,35.20
2018-10-18T17:24:38.794Z,37.00
2018-10-18T17:28:41.223Z,40.00
2018-10-18T17:32:43.638Z,38.50
2018-10-18T17:36:46.821Z,39.50
2018-10-18T17:40:49.328Z,38.10
2018-10-18T17:44:51.572Z,37.83
2018-10-18T17:48:53.947Z,34.40
2018-10-18T17:52:56.433Z,39.40
2018-10-18T17:56:58.821Z,44.77
2018-10-18T18:01:01.297Z,44.33
2018-10-18T18:05:04.479Z,62.55
2018-10-18T18:09:07.893Z,96.20
2018-10-18T18:13:10.287Z,69.20
2018-10-18T18:17:12.656Z,57.97
2018-10-18T18:21:15.028Z,51.43
2018-10-18T18:25:17.474Z,46.67
2018-10-18T18:29:19.856Z,43.97
2018-10-18T18:33:22.265Z,39.97
2018-10-18T18:37:24.690Z,41.48
2018-10-18T18:41:27.136Z,37.80
2018-10-18T18:45:35.730Z,39.17
2018-10-18T18:49:38.236Z,35.45
2018-10-18T18:53:40.591Z,40.07
2018-10-18T18:57:43.139Z,36.63
2018-10-18T19:01:45.570Z,38.02
2018-10-18T19:05:48.090Z,43.57
2018-10-18T19:09:50.612Z,41.87
2018-10-18T19:13:53.099Z,44.70
2018-10-18T19:17:56.193Z,42.10
2018-10-18T19:21:58.701Z,36.40
2018-10-18T19:26:01.160Z,38.17
2018-10-18T19:30:03.623Z,39.40
2018-10-18T19:34:06.052Z,43.93
2018-10-18T19:38:08.442Z,44.03
2018-10-18T19:42:10.752Z,47.47
2018-10-18T19:46:13.343Z,48.60
2018-10-18T19:50:16.036Z,49.03
2018-10-18T19:54:18.583Z,48.53
2018-10-18T19:58:21.140Z,49.53
2018-10-18T20:02:23.911Z,51.75
2018-10-18T20:06:26.365Z,44.27
2018-10-18T20:10:28.946Z,48.87
2018-10-18T20:14:31.468Z,41.47
2018-10-18T20:18:33.959Z,38.13
2018-10-18T20:22:36.310Z,41.03
2018-10-18T20:26:39.026Z,28.07
2018-10-18T20:30:41.472Z,30.97
2018-10-18T20:34:43.986Z,35.67
2018-10-18T20:38:46.374Z,43.83
2018-10-18T20:42:48.743Z,38.83
2018-10-18T20:46:51.441Z,39.87
2018-10-18T20:50:54.049Z,41.10
2018-10-18T20:54:56.417Z,43.03
2018-10-18T20:58:58.919Z,37.37
2018-10-18T21:03:01.429Z,40.33
2018-10-18T21:07:04.050Z,41.03
2018-10-18T21:11:06.486Z,36.50
2018-10-18T21:15:09.014Z,32.77
2018-10-18T21:19:11.434Z,34.17
2018-10-18T21:23:14.053Z,40.17
2018-10-18T21:27:16.394Z,38.13
2018-10-18T21:31:18.805Z,36.60
2018-10-18T21:35:21.215Z,42.43
2018-10-18T21:39:34.817Z,53.00
2018-10-18T21:43:37.169Z,41.90
2018-10-18T21:47:39.764Z,33.87
2018-10-18T21:51:42.180Z,34.80
2018-10-18T21:55:44.536Z,33.53
2018-10-18T21:59:46.933Z,33.57
2018-10-18T22:03:49.339Z,36.37
2018-10-18T22:07:53.820Z,37.33
2018-10-18T22:11:56.761Z,35.23
2018-10-18T22:15:59.527Z,41.30
2018-10-18T22:20:01.933Z,36.13
2018-10-18T22:24:04.688Z,39.20
2018-10-18T22:28:09.155Z,35.13
2018-10-18T22:32:11.552Z,35.23
2018-10-18T22:36:13.921Z,34.90
2018-10-18T22:40:16.316Z,37.93
2018-10-18T22:44:18.684Z,32.63
2018-10-18T22:48:21.039Z,34.03
2018-10-18T22:52:23.454Z,28.10
2018-10-18T22:56:25.812Z,28.60
2018-10-18T23:00:28.190Z,26.07
2018-10-18T23:04:30.612Z,28.07
2018-10-18T23:08:32.952Z,27.10
2018-10-18T23:12:35.299Z,25.33
2018-10-18T23:16:38.223Z,26.63
2018-10-18T23:20:40.920Z,25.93
2018-10-18T23:24:43.423Z,24.90
2018-10-18T23:28:45.917Z,24.47
2018-10-18T23:32:48.338Z,20.67
2018-10-18T23:36:50.748Z,23.80
2018-10-18T23:40:53.175Z,20.60
2018-10-18T23:44:55.618Z,20.33
2018-10-18T23:48:58.020Z,18.53
2018-10-18T23:53:00.409Z,18.57
2018-10-18T23:57:02.795Z,21.70
